Time;durP1;ratioP1;P1;durP2;ratioP2;P2;SDS_P1;SDS_P2;PMS_P1;PMS_P2;Temp;Humidity;BMP_temperature;BMP_pressure;BME280_temperature;BME280_humidity;BME280_pressure;Samples;Min_cycle;Max_cycle;Signal;HPM_P1;HPM_P2
2023/08/18 00:02:23;;;;;;;;;;;;;;;;;;5090991;27;20291;-67
2023/08/18 00:07:01;;;;;;;;;;;;;;;;;;5112526;27;19916;-69
2023/08/18 00:09:27;;;;;;;;;;;;;;;;;;5111234;28;19912;-67
2023/08/18 00:11:53;;;;;;;;;;;;;;;;;;5111556;28;19908;-67
2023/08/18 00:14:19;;;;;;;;;;;;;;;;;;5111865;28;19951;-67
2023/08/18 00:16:45;;;;;;;;;;;;;;;;;;5111087;28;20326;-67
2023/08/18 00:19:11;;;;;;;;;;;;;;;;;;5111451;28;20275;-67
2023/08/18 00:26:05;;;;;;;;;;;;;;;;;;5112153;27;19916;-67
2023/08/18 00:30:07;;;;;;;;;;;;;;;;;;5090975;27;19934;-67
2023/08/18 00:32:34;;;;;;;;;;;;;;;;;;5089990;28;19948;-67
2023/08/18 00:35:00;;;;;;;;;;;;;;;;;;5091188;28;19955;-67
2023/08/18 00:38:26;;;;;;;;;;;;;;;;;;5091621;27;19935;-67
2023/08/18 00:41:53;;;;;;;;;;;;;;;;;;5071175;28;20403;-67
2023/08/18 00:44:19;;;;;;;;;;;;;;;;;;5070701;28;20292;-67
2023/08/18 00:46:45;;;;;;;;;;;;;;;;;;5071023;28;19954;-67
2023/08/18 00:49:11;;;;;;;;;;;;;;;;;;5071237;28;19909;-67
2023/08/18 00:51:37;;;;;;;;;;;;;;;;;;5070553;28;19962;-67
2023/08/18 00:54:03;;;;;;;;;;;;;;;;;;5070945;28;19955;-67
2023/08/18 00:56:29;;;;;;;;;;;;;;;;;;5069555;28;19908;-67
2023/08/18 00:58:55;;;;;;;;;;;;;;;;;;5070389;28;19912;-68
2023/08/18 01:01:21;;;;;;;;;;;;;;;;;;5070692;28;19924;-67
2023/08/18 01:06:04;;;;;;;;;;;;;;;;;;5132304;27;20011;-67
2023/08/18 01:09:34;;;;;;;;;;;;;;;;;;5091356;27;20304;-67
2023/08/18 01:14:28;;;;;;;;;;;;;;;;;;5153112;27;20085;-67
2023/08/18 01:20:37;;;;;;;;;;;;;;;;;;5111993;27;19916;-67
2023/08/18 01:23:52;;;;;;;;;;;;;;;;;;5091453;27;20292;-67
2023/08/18 01:26:18;;;;;;;;;;;;;;;;;;5090959;28;19912;-67
2023/08/18 01:28:44;;;;;;;;;;;;;;;;;;5091166;28;20426;-67
2023/08/18 01:33:42;;;;;;;;;;;;;;;;;;5111391;27;19912;-67
2023/08/18 01:38:07;;;;;;;;;;;;;;;;;;5112215;27;19916;-67
2023/08/18 01:42:12;;;;;;;;;;;;;;;;;;5111797;27;19915;-67
2023/08/18 01:45:33;;;;;;;;;;;;;;;;;;5091305;27;19922;-67
2023/08/18 01:47:59;;;;;;;;;;;;;;;;;;5090915;28;19994;-67
2023/08/18 01:50:38;;;;;;;;;;;;;;;;;;5112426;27;20264;-67
2023/08/18 01:54:45;;;;;;;;;;;;;;;;;;5091042;27;19913;-67
2023/08/18 01:57:11;;;;;;;;;;;;;;;;;;5091260;28;20440;-67
2023/08/18 01:59:37;;;;;;;;;;;;;;;;;;5089859;28;19974;-67
2023/08/18 02:03:54;;;;;;;;;;;;;;;;;;5092040;27;20365;-67
2023/08/18 02:13:10;;;;;;;;;;;;;;;;;;5091919;27;19916;-67
2023/08/18 02:20:49;;;;;;;;;;;;;;;;;;5091485;28;20291;-67
2023/08/18 02:25:22;;;;;;;;;;;;;;;;;;5051873;28;19913;-67
2023/08/18 02:29:11;;;;;;;;;;;;;;;;;;5091255;27;19923;-68
2023/08/18 02:31:47;;;;;;;;;;;;;;;;;;5091957;27;19923;-67
2023/08/18 02:35:16;;;;;;;;;;;;;;;;;;5152626;27;19926;-67
2023/08/18 02:39:57;;;;;;;;;;;;;;;;;;5112278;27;19916;-67
2023/08/18 02:42:23;;;;;;;;;;;;;;;;;;5111265;28;20007;-67
2023/08/18 02:44:49;;;;;;;;;;;;;;;;;;5111480;28;19959;-67
2023/08/18 02:48:22;;;;;;;;;;;;;;;;;;5071265;28;19917;-67
2023/08/18 02:54:58;;;;;;;;;;;;;;;;;;5111913;27;20303;-67
2023/08/18 02:57:23;;;;;;;;;;;;;;;;;;5109929;28;19919;-67
2023/08/18 02:59:49;;;;;;;;;;;;;;;;;;5111610;28;19915;-67
2023/08/18 03:02:15;;;;;;;;;;;;;;;;;;5111519;28;19915;-67
2023/08/18 03:04:41;;;;;;;;;;;;;;;;;;5111113;28;19916;-67
2023/08/18 03:09:02;;;;;;;;;;;;;;;;;;5091563;28;20380;-67
2023/08/18 03:12:27;;;;;;;;;;;;;;;;;;5111321;27;19916;-67
2023/08/18 03:14:53;;;;;;;;;;;;;;;;;;5110385;28;20010;-67
2023/08/18 03:18:37;;;;;;;;;;;;;;;;;;5091069;27;19922;-67
2023/08/18 03:21:50;;;;;;;;;;;;;;;;;;5071119;28;19923;-67
2023/08/18 03:28:52;;;;;;;;;;;;;;;;;;5112262;27;19922;-67
2023/08/18 03:31:18;;;;;;;;;;;;;;;;;;5110399;28;19918;-67
2023/08/18 03:33:44;;;;;;;;;;;;;;;;;;5111632;28;19916;-67
2023/08/18 03:39:05;;;;;;;;;;;;;;;;;;5091376;27;20291;-67
2023/08/18 03:43:55;;;;;;;;;;;;;;;;;;5111930;27;19912;-67
2023/08/18 03:49:11;;;;;;;;;;;;;;;;;;5092077;27;20280;-67
2023/08/18 03:53:38;;;;;;;;;;;;;;;;;;5111694;27;19922;-67
2023/08/18 03:57:00;;;;;;;;;;;;;;;;;;5091755;27;19916;-67
2023/08/18 03:59:26;;;;;;;;;;;;;;;;;;5091306;28;20015;-67
2023/08/18 04:03:58;;;;;;;;;;;;;;;;;;5091319;27;19923;-67
2023/08/18 04:07:12;;;;;;;;;;;;;;;;;;5071077;28;19923;-67
2023/08/18 04:09:38;;;;;;;;;;;;;;;;;;5071114;28;20355;-67
2023/08/18 04:12:03;;;;;;;;;;;;;;;;;;5071001;28;19910;-67
2023/08/18 04:16:28;;;;;;;;;;;;;;;;;;5091419;27;19922;-67
2023/08/18 04:20:15;;;;;;;;;;;;;;;;;;5092097;28;19923;-67
2023/08/18 04:25:17;;;;;;;;;;;;;;;;;;5092181;28;19923;-67
2023/08/18 04:29:02;;;;;;;;;;;;;;;;;;5091229;27;19922;-67
2023/08/18 04:31:28;;;;;;;;;;;;;;;;;;5090098;28;20326;-67
2023/08/18 04:33:54;;;;;;;;;;;;;;;;;;5091161;28;19908;-67
2023/08/18 04:38:38;;;;;;;;;;;;;;;;;;5091634;27;19922;-67
2023/08/18 04:42:57;;;;;;;;;;;;;;;;;;5152579;27;19918;-67
2023/08/18 04:45:23;;;;;;;;;;;;;;;;;;5152858;27;19911;-67
2023/08/18 04:47:49;;;;;;;;;;;;;;;;;;5152877;27;20388;-67
2023/08/18 04:50:15;;;;;;;;;;;;;;;;;;5152396;27;20356;-67
2023/08/18 04:52:41;;;;;;;;;;;;;;;;;;5152913;27;20346;-67
2023/08/18 04:55:07;;;;;;;;;;;;;;;;;;5152691;27;20359;-67
2023/08/18 04:59:11;;;;;;;;;;;;;;;;;;5153297;27;20002;-67
2023/08/18 05:02:39;;;;;;;;;;;;;;;;;;5111952;27;20372;-67
2023/08/18 05:07:11;;;;;;;;;;;;;;;;;;5111658;27;19912;-67
2023/08/18 05:09:37;;;;;;;;;;;;;;;;;;5111742;28;19912;-67
2023/08/18 05:12:04;;;;;;;;;;;;;;;;;;5109916;28;20360;-67
2023/08/18 05:16:12;;;;;;;;;;;;;;;;;;5091883;27;19917;-67
2023/08/18 05:18:38;;;;;;;;;;;;;;;;;;5090937;28;19918;-69
2023/08/18 05:22:36;;;;;;;;;;;;;;;;;;5092151;27;19923;-68
2023/08/18 05:25:02;;;;;;;;;;;;;;;;;;5090922;28;19959;-68
2023/08/18 05:27:28;;;;;;;;;;;;;;;;;;5091324;28;19939;-68
2023/08/18 05:29:56;;;;;;;;;;;;;;;;;;5089978;28;19954;-68
2023/08/18 05:33:00;;;;;;;;;;;;;;;;;;5111473;27;19922;-67
2023/08/18 05:35:26;;;;;;;;;;;;;;;;;;5112344;28;19919;-67
2023/08/18 05:37:52;;;;;;;;;;;;;;;;;;5111666;28;19908;-67
2023/08/18 05:45:21;;;;;;;;;;;;;;;;;;5091294;27;19919;-67
2023/08/18 05:47:47;;;;;;;;;;;;;;;;;;5091366;28;19974;-67
2023/08/18 05:50:13;;;;;;;;;;;;;;;;;;5091790;28;19953;-67
2023/08/18 05:56:53;;;;;;;;;;;;;;;;;;5112175;27;19912;-67
2023/08/18 05:59:19;;;;;;;;;;;;;;;;;;5111283;28;19912;-67
2023/08/18 06:01:45;;;;;;;;;;;;;;;;;;5111629;28;19915;-67
2023/08/18 06:04:11;;;;;;;;;;;;;;;;;;5111571;28;20372;-67
2023/08/18 06:06:37;;;;;;;;;;;;;;;;;;5107470;28;19915;-68
2023/08/18 06:09:48;;;;;;;;;;;;;;;;;;5110955;27;19920;-68
2023/08/18 06:12:14;;;;;;;;;;;;;;;;;;5114195;28;20002;-66
2023/08/18 06:14:40;;;;;;;;;;;;;;;;;;5131530;27;19998;-64
2023/08/18 06:18:50;;;;;;;;;;;;;;;;;;5090725;27;19942;-66
2023/08/18 06:26:00;;;;;;;;;;;;;;;;;;5109273;27;19924;-65
2023/08/18 06:28:26;;;;;;;;;;;;;;;;;;5092738;28;19952;-64
2023/08/18 06:34:05;;;;;;;;;;;;;;;;;;5171959;27;19915;-64
2023/08/18 06:36:31;;;;;;;;;;;;;;;;;;5167389;27;19911;-65
2023/08/18 06:38:57;;;;;;;;;;;;;;;;;;5133464;27;19929;-65
2023/08/18 06:41:23;;;;;;;;;;;;;;;;;;5139779;27;20368;-64
2023/08/18 06:43:49;;;;;;;;;;;;;;;;;;5136980;27;20272;-65
2023/08/18 06:47:11;;;;;;;;;;;;;;;;;;5103685;27;19919;-64
2023/08/18 06:51:25;;;;;;;;;;;;;;;;;;5090282;27;19916;-65
2023/08/18 06:53:51;;;;;;;;;;;;;;;;;;5090263;28;20284;-65
2023/08/18 06:56:17;;;;;;;;;;;;;;;;;;5089028;28;19958;-65
2023/08/18 06:58:43;;;;;;;;;;;;;;;;;;5088571;28;19952;-64
2023/08/18 07:01:09;;;;;;;;;;;;;;;;;;5090301;28;19913;-65
2023/08/18 07:03:34;;;;;;;;;;;;;;;;;;5088332;28;19916;-66
2023/08/18 07:06:00;;;;;;;;;;;;;;;;;;5089046;28;19956;-66
2023/08/18 07:08:26;;;;;;;;;;;;;;;;;;5086814;28;19912;-65
2023/08/18 07:10:52;;;;;;;;;;;;;;;;;;5088816;28;20258;-65
2023/08/18 07:13:20;;;;;;;;;;;;;;;;;;5089988;28;19919;-67
2023/08/18 07:15:46;;;;;;;;;;;;;;;;;;5090305;28;19915;-65
2023/08/18 07:18:12;;;;;;;;;;;;;;;;;;5089803;28;19916;-65
2023/08/18 07:20:38;;;;;;;;;;;;;;;;;;5089932;28;20030;-65
2023/08/18 07:23:04;;;;;;;;;;;;;;;;;;5089465;28;19909;-65
2023/08/18 07:26:08;;;;;;;;;;;;;;;;;;5097977;27;19924;-66
2023/08/18 07:28:34;;;;;;;;;;;;;;;;;;5092696;28;19913;-65
2023/08/18 07:31:00;;;;;;;;;;;;;;;;;;5086852;28;20372;-64
2023/08/18 07:33:26;;;;;;;;;;;;;;;;;;5089053;28;20007;-64
2023/08/18 07:35:52;;;;;;;;;;;;;;;;;;5088319;28;19912;-65
2023/08/18 07:38:18;;;;;;;;;;;;;;;;;;5088878;28;20023;-65
2023/08/18 07:40:44;;;;;;;;;;;;;;;;;;5088735;28;19912;-66
2023/08/18 07:43:10;;;;;;;;;;;;;;;;;;5088359;28;19913;-67
2023/08/18 07:45:36;;;;;;;;;;;;;;;;;;5088009;28;19948;-65
2023/08/18 07:48:02;;;;;;;;;;;;;;;;;;5086988;28;19982;-66
2023/08/18 07:50:28;;;;;;;;;;;;;;;;;;5088263;28;19913;-65
2023/08/18 07:52:55;;;;;;;;;;;;;;;;;;5087477;28;20014;-65
2023/08/18 07:55:21;;;;;;;;;;;;;;;;;;5090426;28;19909;-64
2023/08/18 07:57:47;;;;;;;;;;;;;;;;;;5089930;28;19916;-65
2023/08/18 08:00:17;;;;;;;;;;;;;;;;;;5089705;28;19912;-65
2023/08/18 08:02:43;;;;;;;;;;;;;;;;;;5089688;28;19962;-65
2023/08/18 08:05:10;;;;;;;;;;;;;;;;;;5090706;28;20278;-65
2023/08/18 08:07:36;;;;;;;;;;;;;;;;;;5091587;28;19954;-64
2023/08/18 08:10:04;;;;;;;;;;;;;;;;;;5089779;28;19915;-66
2023/08/18 08:12:30;;;;;;;;;;;;;;;;;;5089586;28;19916;-66
2023/08/18 08:14:56;;;;;;;;;;;;;;;;;;5085630;28;19909;-66
2023/08/18 08:18:36;;;;;;;;;;;;;;;;;;5087134;27;19916;-65
2023/08/18 08:21:02;;;;;;;;;;;;;;;;;;5086496;28;19912;-65
2023/08/18 08:23:28;;;;;;;;;;;;;;;;;;5086814;28;20276;-65
2023/08/18 08:25:54;;;;;;;;;;;;;;;;;;5086793;28;19964;-65
2023/08/18 08:28:20;;;;;;;;;;;;;;;;;;5086558;28;19908;-66
2023/08/18 08:30:46;;;;;;;;;;;;;;;;;;5088842;28;19920;-67
2023/08/18 08:33:12;;;;;;;;;;;;;;;;;;5089489;28;19912;-67
2023/08/18 08:35:38;;;;;;;;;;;;;;;;;;5087425;28;19920;-65
2023/08/18 08:38:04;;;;;;;;;;;;;;;;;;5088644;28;19924;-67
2023/08/18 08:40:30;;;;;;;;;;;;;;;;;;5087889;28;20016;-68
2023/08/18 08:43:20;;;;;;;;;;;;;;;;;;5137723;27;19933;-66
2023/08/18 08:45:46;;;;;;;;;;;;;;;;;;5123242;28;19912;-67
2023/08/18 08:48:12;;;;;;;;;;;;;;;;;;5106663;28;20395;-68
2023/08/18 08:50:39;;;;;;;;;;;;;;;;;;5125401;28;19927;-68
2023/08/18 08:53:05;;;;;;;;;;;;;;;;;;5122334;28;19919;-67
2023/08/18 08:55:31;;;;;;;;;;;;;;;;;;5118951;28;19912;-67
2023/08/18 08:57:57;;;;;;;;;;;;;;;;;;5126749;28;19953;-67
2023/08/18 09:00:23;;;;;;;;;;;;;;;;;;5124445;28;19908;-67
2023/08/18 09:02:49;;;;;;;;;;;;;;;;;;5112325;28;20019;-67
2023/08/18 09:05:15;;;;;;;;;;;;;;;;;;5119533;28;19915;-67
2023/08/18 09:07:41;;;;;;;;;;;;;;;;;;5129549;28;20039;-71
2023/08/18 09:10:07;;;;;;;;;;;;;;;;;;5111045;28;19919;-70
2023/08/18 09:12:33;;;;;;;;;;;;;;;;;;5109032;28;20280;-70
2023/08/18 09:14:59;;;;;;;;;;;;;;;;;;5110783;28;20397;-70
2023/08/18 09:17:25;;;;;;;;;;;;;;;;;;5111390;28;19919;-69
2023/08/18 09:19:51;;;;;;;;;;;;;;;;;;5109538;28;20014;-70
2023/08/18 09:22:17;;;;;;;;;;;;;;;;;;5106623;28;19920;-69
2023/08/18 09:24:42;;;;;;;;;;;;;;;;;;5106985;28;19912;-70
2023/08/18 09:27:09;;;;;;;;;;;;;;;;;;5107389;28;19908;-71
2023/08/18 09:29:36;;;;;;;;;;;;;;;;;;5107424;28;19908;-71
2023/08/18 09:32:02;;;;;;;;;;;;;;;;;;5108351;28;19908;-68
2023/08/18 09:34:30;;;;;;;;;;;;;;;;;;5108585;28;20360;-70
2023/08/18 09:36:56;;;;;;;;;;;;;;;;;;5116597;28;19923;-70
2023/08/18 09:39:22;;;;;;;;;;;;;;;;;;5123009;28;19912;-68
2023/08/18 09:41:48;;;;;;;;;;;;;;;;;;5115203;28;19920;-69
2023/08/18 09:44:14;;;;;;;;;;;;;;;;;;5108164;28;19924;-68
2023/08/18 09:46:39;;;;;;;;;;;;;;;;;;5125180;28;19911;-69
2023/08/18 09:49:05;;;;;;;;;;;;;;;;;;5125250;28;20261;-68
2023/08/18 09:51:31;;;;;;;;;;;;;;;;;;5108602;28;19912;-69
2023/08/18 09:53:58;;;;;;;;;;;;;;;;;;5109582;28;20045;-68
2023/08/18 09:56:24;;;;;;;;;;;;;;;;;;5114827;28;20036;-67
2023/08/18 09:58:50;;;;;;;;;;;;;;;;;;5105856;28;19986;-70
2023/08/18 10:01:16;;;;;;;;;;;;;;;;;;5114981;28;19916;-69
2023/08/18 10:03:42;;;;;;;;;;;;;;;;;;5115423;28;19959;-69
2023/08/18 10:06:08;;;;;;;;;;;;;;;;;;5110820;28;19923;-69
2023/08/18 10:08:34;;;;;;;;;;;;;;;;;;5101183;28;19930;-69
2023/08/18 10:11:00;;;;;;;;;;;;;;;;;;5107607;28;20150;-69
2023/08/18 10:13:27;;;;;;;;;;;;;;;;;;5114172;28;19915;-69
2023/08/18 10:15:53;;;;;;;;;;;;;;;;;;5108586;28;19920;-68
2023/08/18 10:18:21;;;;;;;;;;;;;;;;;;5108171;28;19955;-68
2023/08/18 10:20:47;;;;;;;;;;;;;;;;;;5096898;28;19916;-69
2023/08/18 10:23:13;;;;;;;;;;;;;;;;;;5102409;28;20368;-69
2023/08/18 10:25:39;;;;;;;;;;;;;;;;;;5108187;28;19918;-69
2023/08/18 10:28:05;;;;;;;;;;;;;;;;;;5115485;28;19958;-69
2023/08/18 10:30:31;;;;;;;;;;;;;;;;;;5114260;28;19912;-69
2023/08/18 10:33:00;;;;;;;;;;;;;;;;;;5098375;28;20401;-69
2023/08/18 10:35:27;;;;;;;;;;;;;;;;;;5095259;28;19915;-68
2023/08/18 10:37:53;;;;;;;;;;;;;;;;;;5095350;28;19955;-69
2023/08/18 10:40:18;;;;;;;;;;;;;;;;;;5095918;28;19985;-69
2023/08/18 10:42:44;;;;;;;;;;;;;;;;;;5114867;28;19949;-68
2023/08/18 10:45:10;;;;;;;;;;;;;;;;;;5115501;28;19920;-67
2023/08/18 10:47:37;;;;;;;;;;;;;;;;;;5109340;28;19912;-67
2023/08/18 10:50:07;;;;;;;;;;;;;;;;;;5099464;28;19912;-68
2023/08/18 10:52:33;;;;;;;;;;;;;;;;;;5094633;28;20385;-68
2023/08/18 10:54:59;;;;;;;;;;;;;;;;;;5094880;28;19930;-68
2023/08/18 10:57:25;;;;;;;;;;;;;;;;;;5115698;28;19953;-67
2023/08/18 10:59:51;;;;;;;;;;;;;;;;;;5115086;28;19914;-70
2023/08/18 11:02:17;;;;;;;;;;;;;;;;;;5105783;28;19923;-67
2023/08/18 11:04:43;;;;;;;;;;;;;;;;;;5093143;28;19912;-68
2023/08/18 11:07:09;;;;;;;;;;;;;;;;;;5095729;28;19919;-67
2023/08/18 11:09:35;;;;;;;;;;;;;;;;;;5112188;28;20007;-67
2023/08/18 11:12:01;;;;;;;;;;;;;;;;;;5106316;28;19920;-67
2023/08/18 11:14:27;;;;;;;;;;;;;;;;;;5108448;28;20325;-67
2023/08/18 11:16:53;;;;;;;;;;;;;;;;;;5108183;28;20006;-67
2023/08/18 11:19:19;;;;;;;;;;;;;;;;;;5109793;28;19908;-66
2023/08/18 11:21:45;;;;;;;;;;;;;;;;;;5110237;28;19960;-67
2023/08/18 11:24:11;;;;;;;;;;;;;;;;;;5111921;28;19912;-67
2023/08/18 11:26:38;;;;;;;;;;;;;;;;;;5112620;28;19911;-66
2023/08/18 11:29:07;;;;;;;;;;;;;;;;;;5104827;28;19912;-66
2023/08/18 11:31:32;;;;;;;;;;;;;;;;;;5094416;28;20280;-68
2023/08/18 11:33:58;;;;;;;;;;;;;;;;;;5110460;28;19912;-67
2023/08/18 11:36:24;;;;;;;;;;;;;;;;;;5114815;28;20002;-68
2023/08/18 11:38:50;;;;;;;;;;;;;;;;;;5114463;28;19918;-67
2023/08/18 11:41:16;;;;;;;;;;;;;;;;;;5111581;28;19966;-67
2023/08/18 11:43:42;;;;;;;;;;;;;;;;;;5102594;28;19920;-68
2023/08/18 11:46:08;;;;;;;;;;;;;;;;;;5114473;28;19935;-66
2023/08/18 11:48:34;;;;;;;;;;;;;;;;;;5100066;28;20007;-66
2023/08/18 11:51:00;;;;;;;;;;;;;;;;;;5105700;28;19915;-66
2023/08/18 11:53:26;;;;;;;;;;;;;;;;;;5112912;28;19953;-68
2023/08/18 11:55:52;;;;;;;;;;;;;;;;;;5110785;28;19908;-67
2023/08/18 11:58:18;;;;;;;;;;;;;;;;;;5091662;28;20333;-68
2023/08/18 12:00:44;;;;;;;;;;;;;;;;;;5094093;28;20275;-68
2023/08/18 12:03:10;;;;;;;;;;;;;;;;;;5106095;28;19980;-68
2023/08/18 12:05:36;;;;;;;;;;;;;;;;;;5110465;28;20295;-67
2023/08/18 12:08:08;;;;;;;;;;;;;;;;;;5104916;28;20434;-65
2023/08/18 12:10:34;;;;;;;;;;;;;;;;;;5098417;28;19973;-67
2023/08/18 12:13:00;;;;;;;;;;;;;;;;;;5092976;28;20411;-66
2023/08/18 12:15:26;;;;;;;;;;;;;;;;;;5111692;28;20291;-67
2023/08/18 12:17:52;;;;;;;;;;;;;;;;;;5104564;28;19953;-66
2023/08/18 12:20:21;;;;;;;;;;;;;;;;;;5105022;28;19952;-68
2023/08/18 12:22:47;;;;;;;;;;;;;;;;;;5093792;28;20005;-67
2023/08/18 12:25:13;;;;;;;;;;;;;;;;;;5105686;28;19908;-67
2023/08/18 12:27:39;;;;;;;;;;;;;;;;;;5114061;28;19912;-68
2023/08/18 12:30:06;;;;;;;;;;;;;;;;;;5114125;28;20360;-67
2023/08/18 12:32:32;;;;;;;;;;;;;;;;;;5113159;28;19912;-68
2023/08/18 12:34:58;;;;;;;;;;;;;;;;;;5113793;28;20425;-68
2023/08/18 12:37:24;;;;;;;;;;;;;;;;;;5111813;28;19920;-66
2023/08/18 12:39:50;;;;;;;;;;;;;;;;;;5104710;28;19919;-68
2023/08/18 12:42:16;;;;;;;;;;;;;;;;;;5092986;28;20399;-68
2023/08/18 12:44:42;;;;;;;;;;;;;;;;;;5093520;28;20288;-68
2023/08/18 12:47:08;;;;;;;;;;;;;;;;;;5094307;28;19912;-68
2023/08/18 12:49:34;;;;;;;;;;;;;;;;;;5092375;28;19965;-68
2023/08/18 12:52:00;;;;;;;;;;;;;;;;;;5093393;28;19935;-68
2023/08/18 12:54:27;;;;;;;;;;;;;;;;;;5093034;28;19914;-67
2023/08/18 12:56:52;;;;;;;;;;;;;;;;;;5101241;28;19920;-68
2023/08/18 12:59:18;;;;;;;;;;;;;;;;;;5104011;28;20010;-69
2023/08/18 13:01:44;;;;;;;;;;;;;;;;;;5110439;28;19973;-68
2023/08/18 13:04:10;;;;;;;;;;;;;;;;;;5105388;28;19960;-67
2023/08/18 13:06:36;;;;;;;;;;;;;;;;;;5110534;28;19919;-70
2023/08/18 13:09:02;;;;;;;;;;;;;;;;;;5113607;28;19915;-69
2023/08/18 13:11:28;;;;;;;;;;;;;;;;;;5113956;28;20399;-69
2023/08/18 13:13:54;;;;;;;;;;;;;;;;;;5114044;28;20002;-69
2023/08/18 13:16:20;;;;;;;;;;;;;;;;;;5113620;28;20265;-69
2023/08/18 13:18:46;;;;;;;;;;;;;;;;;;5113904;28;20287;-69
2023/08/18 13:21:12;;;;;;;;;;;;;;;;;;5112524;28;19952;-69
2023/08/18 13:23:38;;;;;;;;;;;;;;;;;;5113471;28;20004;-69
2023/08/18 13:26:04;;;;;;;;;;;;;;;;;;5113792;28;20003;-69
2023/08/18 13:28:30;;;;;;;;;;;;;;;;;;5114944;28;20329;-69
2023/08/18 13:30:56;;;;;;;;;;;;;;;;;;5117215;28;19930;-69
2023/08/18 13:33:22;;;;;;;;;;;;;;;;;;5117657;28;19935;-69
2023/08/18 13:35:48;;;;;;;;;;;;;;;;;;5117587;28;20299;-69
2023/08/18 13:38:14;;;;;;;;;;;;;;;;;;5117472;28;20334;-70
2023/08/18 13:40:40;;;;;;;;;;;;;;;;;;5117664;28;20268;-69
2023/08/18 13:43:06;;;;;;;;;;;;;;;;;;5117084;28;19920;-71
2023/08/18 13:45:31;;;;;;;;;;;;;;;;;;5117069;28;19908;-69
2023/08/18 13:47:57;;;;;;;;;;;;;;;;;;5117462;28;19908;-70
2023/08/18 13:50:23;;;;;;;;;;;;;;;;;;5116908;28;19908;-69
2023/08/18 13:52:49;;;;;;;;;;;;;;;;;;5117283;28;19915;-69
2023/08/18 13:55:15;;;;;;;;;;;;;;;;;;5117596;28;19907;-69
2023/08/18 13:57:41;;;;;;;;;;;;;;;;;;5116831;28;20359;-69
2023/08/18 14:00:09;;;;;;;;;;;;;;;;;;5117754;28;20347;-69
2023/08/18 14:02:35;;;;;;;;;;;;;;;;;;5117086;28;19923;-70
2023/08/18 14:05:01;;;;;;;;;;;;;;;;;;5116703;28;19908;-69
2023/08/18 14:07:27;;;;;;;;;;;;;;;;;;5116963;28;19908;-69
2023/08/18 14:09:53;;;;;;;;;;;;;;;;;;5116991;28;20339;-70
2023/08/18 14:12:19;;;;;;;;;;;;;;;;;;5116918;28;20374;-69
2023/08/18 14:14:45;;;;;;;;;;;;;;;;;;5116839;28;20322;-70
2023/08/18 14:17:11;;;;;;;;;;;;;;;;;;5116963;28;20290;-69
2023/08/18 14:19:37;;;;;;;;;;;;;;;;;;5116427;28;19908;-69
2023/08/18 14:22:03;;;;;;;;;;;;;;;;;;5116631;28;19920;-68
2023/08/18 14:24:29;;;;;;;;;;;;;;;;;;5115345;28;19998;-68
2023/08/18 14:26:56;;;;;;;;;;;;;;;;;;5116260;28;19915;-68
2023/08/18 14:29:24;;;;;;;;;;;;;;;;;;5116495;28;19923;-68
2023/08/18 14:31:49;;;;;;;;;;;;;;;;;;5115163;28;19945;-68
2023/08/18 14:34:15;;;;;;;;;;;;;;;;;;5114666;28;19908;-68
2023/08/18 14:36:41;;;;;;;;;;;;;;;;;;5116318;28;19907;-69
2023/08/18 14:39:07;;;;;;;;;;;;;;;;;;5116242;28;19911;-69
2023/08/18 14:41:33;;;;;;;;;;;;;;;;;;5115801;28;19923;-69
2023/08/18 14:43:59;;;;;;;;;;;;;;;;;;5116031;28;19963;-69
2023/08/18 14:46:25;;;;;;;;;;;;;;;;;;5116190;28;19960;-69
2023/08/18 14:48:51;;;;;;;;;;;;;;;;;;5115676;28;19912;-69
2023/08/18 14:51:17;;;;;;;;;;;;;;;;;;5116741;28;19953;-69
2023/08/18 14:53:43;;;;;;;;;;;;;;;;;;5115570;28;19953;-69
2023/08/18 14:56:09;;;;;;;;;;;;;;;;;;5116167;28;20379;-68
2023/08/18 14:58:35;;;;;;;;;;;;;;;;;;5116258;28;20379;-69
2023/08/18 15:01:01;;;;;;;;;;;;;;;;;;5115658;28;19908;-69
2023/08/18 15:03:27;;;;;;;;;;;;;;;;;;5116092;28;19922;-69
2023/08/18 15:05:53;;;;;;;;;;;;;;;;;;5115841;28;20048;-69
2023/08/18 15:08:20;;;;;;;;;;;;;;;;;;5115394;28;19908;-69
2023/08/18 15:10:46;;;;;;;;;;;;;;;;;;5115766;28;20429;-68
2023/08/18 15:13:12;;;;;;;;;;;;;;;;;;5115872;28;19907;-69
2023/08/18 15:15:38;;;;;;;;;;;;;;;;;;5115236;28;20364;-70
2023/08/18 15:18:03;;;;;;;;;;;;;;;;;;5115608;28;19908;-69
2023/08/18 15:20:30;;;;;;;;;;;;;;;;;;5115610;28;20329;-69
2023/08/18 15:22:56;;;;;;;;;;;;;;;;;;5115045;28;19922;-69
2023/08/18 15:25:22;;;;;;;;;;;;;;;;;;5115502;28;19907;-69
2023/08/18 15:27:48;;;;;;;;;;;;;;;;;;5115866;28;20386;-69
2023/08/18 15:30:14;;;;;;;;;;;;;;;;;;5114881;28;20360;-69
2023/08/18 15:32:40;;;;;;;;;;;;;;;;;;5115348;28;20416;-69
2023/08/18 15:35:06;;;;;;;;;;;;;;;;;;5115245;28;19908;-69
2023/08/18 15:37:32;;;;;;;;;;;;;;;;;;5114778;28;19962;-69
2023/08/18 15:39:58;;;;;;;;;;;;;;;;;;5115195;28;19915;-69
2023/08/18 15:42:24;;;;;;;;;;;;;;;;;;5115073;28;19923;-69
2023/08/18 15:44:52;;;;;;;;;;;;;;;;;;5114633;28;20387;-69
2023/08/18 15:47:18;;;;;;;;;;;;;;;;;;5114999;28;19951;-69
2023/08/18 15:49:44;;;;;;;;;;;;;;;;;;5115081;28;19988;-69
2023/08/18 15:52:10;;;;;;;;;;;;;;;;;;5114057;28;19957;-69
2023/08/18 15:54:36;;;;;;;;;;;;;;;;;;5114890;28;19908;-69
2023/08/18 15:57:02;;;;;;;;;;;;;;;;;;5114458;28;19907;-67
2023/08/18 15:59:30;;;;;;;;;;;;;;;;;;5114939;28;19908;-68
2023/08/18 16:01:56;;;;;;;;;;;;;;;;;;5114697;28;20372;-68
2023/08/18 16:04:22;;;;;;;;;;;;;;;;;;5114555;28;19915;-66
2023/08/18 16:06:48;;;;;;;;;;;;;;;;;;5114719;28;20391;-68
2023/08/18 16:09:14;;;;;;;;;;;;;;;;;;5113398;28;20007;-69
2023/08/18 16:11:40;;;;;;;;;;;;;;;;;;5114246;28;20322;-69
2023/08/18 16:14:08;;;;;;;;;;;;;;;;;;5114608;28;19939;-69
2023/08/18 16:16:35;;;;;;;;;;;;;;;;;;5114486;28;19907;-69
2023/08/18 16:19:03;;;;;;;;;;;;;;;;;;5114085;28;19921;-69
2023/08/18 16:21:29;;;;;;;;;;;;;;;;;;5114394;28;20397;-69
2023/08/18 16:23:55;;;;;;;;;;;;;;;;;;5114544;28;19911;-69
2023/08/18 16:26:21;;;;;;;;;;;;;;;;;;5114038;28;20006;-70
2023/08/18 16:28:47;;;;;;;;;;;;;;;;;;5114312;28;20468;-69
2023/08/18 16:31:13;;;;;;;;;;;;;;;;;;5114819;28;20441;-69
2023/08/18 16:33:39;;;;;;;;;;;;;;;;;;5113967;28;19908;-68
2023/08/18 16:36:07;;;;;;;;;;;;;;;;;;5114267;28;19908;-68
2023/08/18 16:38:33;;;;;;;;;;;;;;;;;;5112860;28;20363;-68
2023/08/18 16:41:01;;;;;;;;;;;;;;;;;;5113977;28;19908;-68
2023/08/18 16:43:27;;;;;;;;;;;;;;;;;;5114109;28;19919;-69
2023/08/18 16:45:53;;;;;;;;;;;;;;;;;;5114118;28;19915;-69
2023/08/18 16:48:19;;;;;;;;;;;;;;;;;;5110443;28;19973;-66
2023/08/18 16:50:45;;;;;;;;;;;;;;;;;;5112464;28;19908;-66
2023/08/18 16:53:11;;;;;;;;;;;;;;;;;;5113383;28;20340;-68
2023/08/18 16:55:39;;;;;;;;;;;;;;;;;;5112504;28;19990;-68
2023/08/18 16:58:05;;;;;;;;;;;;;;;;;;5112776;28;19907;-68
2023/08/18 17:00:30;;;;;;;;;;;;;;;;;;5113742;28;19912;-68
2023/08/18 17:02:56;;;;;;;;;;;;;;;;;;5114143;28;20023;-68
2023/08/18 17:05:22;;;;;;;;;;;;;;;;;;5118151;28;19966;-68
2023/08/18 17:07:48;;;;;;;;;;;;;;;;;;5116653;28;20388;-68
2023/08/18 17:10:14;;;;;;;;;;;;;;;;;;5118169;28;19907;-68
2023/08/18 17:12:40;;;;;;;;;;;;;;;;;;5118069;28;19923;-67
2023/08/18 17:15:06;;;;;;;;;;;;;;;;;;5117606;28;19988;-68
2023/08/18 17:17:32;;;;;;;;;;;;;;;;;;5117910;28;19961;-67
2023/08/18 17:19:58;;;;;;;;;;;;;;;;;;5117737;28;19908;-67
2023/08/18 17:22:24;;;;;;;;;;;;;;;;;;5117301;28;20014;-67
2023/08/18 17:24:50;;;;;;;;;;;;;;;;;;5117897;28;19912;-68
2023/08/18 17:27:16;;;;;;;;;;;;;;;;;;5117797;28;19938;-68
2023/08/18 17:29:42;;;;;;;;;;;;;;;;;;5117465;28;19907;-68
2023/08/18 17:32:08;;;;;;;;;;;;;;;;;;5117795;28;20348;-68
2023/08/18 17:34:34;;;;;;;;;;;;;;;;;;5117773;28;19911;-67
2023/08/18 17:37:00;;;;;;;;;;;;;;;;;;5115108;28;19951;-68
2023/08/18 17:39:26;;;;;;;;;;;;;;;;;;5115587;28;19951;-68
2023/08/18 17:41:52;;;;;;;;;;;;;;;;;;5117414;28;20010;-68
2023/08/18 17:44:18;;;;;;;;;;;;;;;;;;5116915;28;19919;-68
2023/08/18 17:46:44;;;;;;;;;;;;;;;;;;5110215;28;20284;-68
2023/08/18 17:49:10;;;;;;;;;;;;;;;;;;5100555;28;20460;-68
2023/08/18 17:51:36;;;;;;;;;;;;;;;;;;5110347;28;19912;-68
2023/08/18 17:54:02;;;;;;;;;;;;;;;;;;5117294;28;19914;-68
2023/08/18 17:56:28;;;;;;;;;;;;;;;;;;5115072;28;19912;-68
2023/08/18 17:58:54;;;;;;;;;;;;;;;;;;5101298;28;19919;-68
2023/08/18 18:01:20;;;;;;;;;;;;;;;;;;5103603;28;20002;-68
2023/08/18 18:03:46;;;;;;;;;;;;;;;;;;5100190;28;19912;-68
2023/08/18 18:06:12;;;;;;;;;;;;;;;;;;5097828;28;19909;-69
2023/08/18 18:08:38;;;;;;;;;;;;;;;;;;5095545;28;19933;-68
2023/08/18 18:11:03;;;;;;;;;;;;;;;;;;5094721;28;20011;-68
2023/08/18 18:13:29;;;;;;;;;;;;;;;;;;5097572;28;19913;-68
2023/08/18 18:15:55;;;;;;;;;;;;;;;;;;5101367;28;19912;-68
2023/08/18 18:18:21;;;;;;;;;;;;;;;;;;5115098;28;20010;-68
2023/08/18 18:20:47;;;;;;;;;;;;;;;;;;5116789;28;19915;-68
2023/08/18 18:23:13;;;;;;;;;;;;;;;;;;5116607;28;19916;-68
2023/08/18 18:25:39;;;;;;;;;;;;;;;;;;5116300;28;19908;-68
2023/08/18 18:28:05;;;;;;;;;;;;;;;;;;5115240;28;19907;-70
2023/08/18 18:30:31;;;;;;;;;;;;;;;;;;5116669;28;19915;-69
2023/08/18 18:32:57;;;;;;;;;;;;;;;;;;5116274;28;19908;-68
2023/08/18 18:35:23;;;;;;;;;;;;;;;;;;5116700;28;19937;-68
2023/08/18 18:37:49;;;;;;;;;;;;;;;;;;5116415;28;19933;-68
2023/08/18 18:40:18;;;;;;;;;;;;;;;;;;5116071;28;19907;-68
2023/08/18 18:42:44;;;;;;;;;;;;;;;;;;5115293;28;19916;-67